THY6MB LTFM-LTFE
Flight info
| Callsign | THY6MB |
|---|---|
| Flight time | 0h 55m |
| Altitude | 36000 |
| Route | RATVU UT35 NUMTI DCT KULAR/N0431F350 UT44 LAVTA UW87 KAVAK |
| Aircraft | A320/M-SDE3FGHIRWY/LB1 |
Departure
| Time | 2026-05-08 13:23 |
|---|---|
| Airport | İstanbul Airport (LTFM) |
Arrival
| Time | 2026-05-08 14:18 |
|---|---|
| Airport | Milas Bodrum International Airport (LTFE) |
| Time | Latitude | Longitude | Altitude | Speed | Heading |
|---|---|---|---|---|---|
| 2026-05-08 12:44 | 41.26247 | 28.73646 | 334 ft | 0 kts | 71° |
| 2026-05-08 13:06 | 41.26246 | 28.73643 | 334 ft | 3 kts | 71° |
| 2026-05-08 13:07 | 41.26238 | 28.73609 | 332 ft | 4 kts | 70° |
| 2026-05-08 13:07 | 41.26228 | 28.73576 | 332 ft | 4 kts | 64° |
| 2026-05-08 13:07 | 41.26214 | 28.73546 | 333 ft | 4 kts | 45° |
| 2026-05-08 13:07 | 41.26203 | 28.73534 | 334 ft | 0 kts | 26° |
| 2026-05-08 13:10 | 41.26204 | 28.73534 | 334 ft | 1 kts | 26° |
| 2026-05-08 13:11 | 41.26215 | 28.73542 | 334 ft | 3 kts | 26° |
| 2026-05-08 13:11 | 41.26237 | 28.73534 | 331 ft | 4 kts | 325° |
| 2026-05-08 13:11 | 41.26268 | 28.73506 | 330 ft | 7 kts | 325° |
| 2026-05-08 13:11 | 41.26316 | 28.73481 | 331 ft | 9 kts | 343° |
| 2026-05-08 13:12 | 41.26380 | 28.73455 | 334 ft | 11 kts | 342° |
| 2026-05-08 13:12 | 41.26457 | 28.73417 | 331 ft | 13 kts | 341° |
| 2026-05-08 13:12 | 41.26543 | 28.73378 | 331 ft | 14 kts | 341° |
| 2026-05-08 13:12 | 41.26627 | 28.73341 | 333 ft | 13 kts | 348° |
| 2026-05-08 13:13 | 41.26728 | 28.73335 | 330 ft | 15 kts | 359° |
| 2026-05-08 13:13 | 41.26817 | 28.73333 | 332 ft | 13 kts | 359° |
| 2026-05-08 13:13 | 41.26918 | 28.73331 | 332 ft | 16 kts | 358° |
| 2026-05-08 13:13 | 41.27034 | 28.73326 | 334 ft | 18 kts | 359° |
| 2026-05-08 13:14 | 41.27124 | 28.73293 | 334 ft | 13 kts | 301° |
| 2026-05-08 13:14 | 41.27129 | 28.73161 | 334 ft | 15 kts | 270° |
| 2026-05-08 13:14 | 41.27214 | 28.73095 | 333 ft | 17 kts | 358° |
| 2026-05-08 13:14 | 41.27338 | 28.73093 | 334 ft | 17 kts | 0° |
| 2026-05-08 13:15 | 41.27460 | 28.73091 | 332 ft | 17 kts | 358° |
| 2026-05-08 13:15 | 41.27571 | 28.73080 | 334 ft | 17 kts | 335° |
| 2026-05-08 13:15 | 41.27641 | 28.72975 | 331 ft | 16 kts | 349° |
| 2026-05-08 13:15 | 41.27761 | 28.72970 | 334 ft | 18 kts | 357° |
| 2026-05-08 13:16 | 41.27897 | 28.72964 | 331 ft | 21 kts | 359° |
| 2026-05-08 13:16 | 41.28049 | 28.72960 | 333 ft | 23 kts | 359° |
| 2026-05-08 13:16 | 41.28216 | 28.72959 | 334 ft | 25 kts | 359° |
| 2026-05-08 13:16 | 41.28370 | 28.72955 | 330 ft | 23 kts | 358° |
| 2026-05-08 13:17 | 41.28502 | 28.72950 | 331 ft | 19 kts | 358° |
| 2026-05-08 13:17 | 41.28639 | 28.72946 | 332 ft | 21 kts | 359° |
| 2026-05-08 13:17 | 41.28792 | 28.72941 | 332 ft | 23 kts | 358° |
| 2026-05-08 13:17 | 41.28960 | 28.72935 | 330 ft | 25 kts | 360° |
| 2026-05-08 13:18 | 41.29120 | 28.72936 | 331 ft | 22 kts | 360° |
| 2026-05-08 13:18 | 41.29281 | 28.72932 | 330 ft | 19 kts | 359° |
| 2026-05-08 13:18 | 41.29424 | 28.72928 | 331 ft | 22 kts | 358° |
| 2026-05-08 13:18 | 41.29581 | 28.72921 | 331 ft | 24 kts | 358° |
| 2026-05-08 13:19 | 41.29749 | 28.72920 | 331 ft | 21 kts | 360° |
| 2026-05-08 13:19 | 41.29852 | 28.72912 | 330 ft | 11 kts | 335° |
| 2026-05-08 13:19 | 41.29893 | 28.72818 | 334 ft | 13 kts | 289° |
| 2026-05-08 13:19 | 41.29892 | 28.72692 | 334 ft | 10 kts | 243° |
| 2026-05-08 13:20 | 41.29830 | 28.72693 | 334 ft | 10 kts | 174° |
| 2026-05-08 13:20 | 41.29795 | 28.72695 | 334 ft | 0 kts | 178° |
| 2026-05-08 13:20 | 41.29786 | 28.72696 | 332 ft | 2 kts | 178° |
| 2026-05-08 13:21 | 41.29526 | 28.72699 | 330 ft | 73 kts | 179° |
| 2026-05-08 13:21 | 41.28803 | 28.72711 | 333 ft | 129 kts | 181° |
| 2026-05-08 13:21 | 41.27778 | 28.72706 | 334 ft | 146 kts | 176° |
| 2026-05-08 13:21 | 41.26914 | 28.72893 | 330 ft | 119 kts | 162° |
| 2026-05-08 13:22 | 41.26178 | 28.73396 | 331 ft | 117 kts | 149° |
| 2026-05-08 13:22 | 41.25648 | 28.73786 | 332 ft | 58 kts | 152° |
| 2026-05-08 13:22 | 41.25496 | 28.73966 | 331 ft | 9 kts | 70° |
| 2026-05-08 13:22 | 41.25544 | 28.74141 | 331 ft | 55 kts | 70° |
| 2026-05-08 13:23 | 41.25713 | 28.75022 | 333 ft | 138 kts | 78° |
| 2026-05-08 13:23 | 41.25921 | 28.76491 | 694 ft | 171 kts | 82° |
| 2026-05-08 13:23 | 41.26294 | 28.78061 | 1429 ft | 186 kts | 62° |
| 2026-05-08 13:23 | 41.27198 | 28.79336 | 2120 ft | 196 kts | 26° |
| 2026-05-08 13:24 | 41.28527 | 28.79803 | 2637 ft | 198 kts | 347° |
| 2026-05-08 13:24 | 41.29720 | 28.79046 | 3176 ft | 198 kts | 318° |
| 2026-05-08 13:24 | 41.30677 | 28.77641 | 3525 ft | 215 kts | 296° |
| 2026-05-08 13:24 | 41.31002 | 28.75645 | 3879 ft | 234 kts | 261° |
| 2026-05-08 13:25 | 41.30263 | 28.73657 | 4409 ft | 253 kts | 223° |
| 2026-05-08 13:25 | 41.28663 | 28.72624 | 5220 ft | 265 kts | 190° |
| 2026-05-08 13:25 | 41.26804 | 28.72461 | 6134 ft | 271 kts | 182° |
| 2026-05-08 13:25 | 41.24903 | 28.72513 | 7055 ft | 275 kts | 180° |
| 2026-05-08 13:26 | 41.22952 | 28.72633 | 7950 ft | 279 kts | 179° |
| 2026-05-08 13:26 | 41.21023 | 28.72751 | 8786 ft | 283 kts | 180° |
| 2026-05-08 13:26 | 41.19056 | 28.72536 | 9574 ft | 285 kts | 195° |
| 2026-05-08 13:26 | 41.17215 | 28.71558 | 10365 ft | 287 kts | 212° |
| 2026-05-08 13:27 | 41.15630 | 28.69903 | 10959 ft | 299 kts | 223° |
| 2026-05-08 13:27 | 41.13990 | 28.68039 | 11227 ft | 321 kts | 216° |
| 2026-05-08 13:27 | 41.11967 | 28.66686 | 11777 ft | 332 kts | 199° |
| 2026-05-08 13:27 | 41.09681 | 28.66137 | 12466 ft | 339 kts | 182° |
| 2026-05-08 13:28 | 41.07317 | 28.66403 | 13145 ft | 343 kts | 173° |
| 2026-05-08 13:28 | 41.04936 | 28.66828 | 13832 ft | 347 kts | 173° |
| 2026-05-08 13:28 | 41.02536 | 28.67257 | 14502 ft | 350 kts | 174° |
| 2026-05-08 13:28 | 41.00107 | 28.67687 | 15126 ft | 354 kts | 174° |
| 2026-05-08 13:29 | 40.97651 | 28.68127 | 15751 ft | 358 kts | 172° |
| 2026-05-08 13:29 | 40.95260 | 28.69092 | 16333 ft | 364 kts | 154° |
| 2026-05-08 13:29 | 40.93193 | 28.71041 | 16910 ft | 369 kts | 137° |
| 2026-05-08 13:29 | 40.91279 | 28.73323 | 17495 ft | 371 kts | 144° |
| 2026-05-08 13:30 | 40.89072 | 28.75105 | 18070 ft | 374 kts | 154° |
| 2026-05-08 13:30 | 40.86700 | 28.76536 | 18640 ft | 376 kts | 159° |
| 2026-05-08 13:30 | 40.84263 | 28.77834 | 19175 ft | 380 kts | 160° |
| 2026-05-08 13:30 | 40.81796 | 28.79156 | 19711 ft | 384 kts | 159° |
| 2026-05-08 13:31 | 40.79328 | 28.80568 | 20237 ft | 389 kts | 157° |
| 2026-05-08 13:31 | 40.76863 | 28.82083 | 20739 ft | 393 kts | 156° |
| 2026-05-08 13:31 | 40.74392 | 28.83683 | 21228 ft | 397 kts | 155° |
| 2026-05-08 13:31 | 40.71916 | 28.85333 | 21701 ft | 401 kts | 155° |
| 2026-05-08 13:32 | 40.69423 | 28.87003 | 22149 ft | 404 kts | 155° |
| 2026-05-08 13:32 | 40.66900 | 28.88683 | 22583 ft | 408 kts | 155° |
| 2026-05-08 13:32 | 40.64352 | 28.90364 | 23036 ft | 411 kts | 155° |
| 2026-05-08 13:32 | 40.61781 | 28.92044 | 23447 ft | 415 kts | 156° |
| 2026-05-08 13:33 | 40.59177 | 28.93736 | 23856 ft | 419 kts | 156° |
| 2026-05-08 13:33 | 40.56550 | 28.95438 | 24284 ft | 423 kts | 156° |
| 2026-05-08 13:33 | 40.53899 | 28.97155 | 24690 ft | 426 kts | 156° |
| 2026-05-08 13:33 | 40.51231 | 28.98888 | 25088 ft | 430 kts | 156° |
| 2026-05-08 13:34 | 40.48536 | 29.00636 | 25472 ft | 434 kts | 156° |
| 2026-05-08 13:34 | 40.45818 | 29.02399 | 25847 ft | 437 kts | 156° |
| 2026-05-08 13:34 | 40.43083 | 29.04174 | 26207 ft | 441 kts | 156° |
| 2026-05-08 13:34 | 40.40319 | 29.05965 | 26574 ft | 444 kts | 156° |
| 2026-05-08 13:35 | 40.37534 | 29.07766 | 26932 ft | 448 kts | 156° |
| 2026-05-08 13:35 | 40.34729 | 29.09577 | 27287 ft | 451 kts | 156° |
| 2026-05-08 13:35 | 40.31899 | 29.11403 | 27621 ft | 455 kts | 156° |
| 2026-05-08 13:35 | 40.29048 | 29.13240 | 27955 ft | 458 kts | 157° |
| 2026-05-08 13:36 | 40.26177 | 29.15089 | 28291 ft | 461 kts | 157° |
| 2026-05-08 13:36 | 40.23286 | 29.16952 | 28608 ft | 465 kts | 157° |
| 2026-05-08 13:36 | 40.20373 | 29.18827 | 28916 ft | 469 kts | 157° |
| 2026-05-08 13:36 | 40.18427 | 29.20076 | 29133 ft | 471 kts | 157° |
| 2026-05-08 13:37 | 40.15475 | 29.21969 | 29457 ft | 474 kts | 157° |
| 2026-05-08 13:37 | 40.12508 | 29.23872 | 29784 ft | 477 kts | 157° |
| 2026-05-08 13:37 | 40.09519 | 29.25786 | 30088 ft | 479 kts | 158° |
| 2026-05-08 13:37 | 40.06654 | 29.27619 | 30391 ft | 483 kts | 158° |
| 2026-05-08 13:38 | 40.03630 | 29.29552 | 30695 ft | 485 kts | 158° |
| 2026-05-08 13:38 | 40.00590 | 29.31495 | 30953 ft | 488 kts | 158° |
| 2026-05-08 13:38 | 39.97529 | 29.33451 | 31220 ft | 491 kts | 158° |
| 2026-05-08 13:38 | 39.94457 | 29.35413 | 31571 ft | 492 kts | 158° |
| 2026-05-08 13:39 | 39.91385 | 29.37366 | 31966 ft | 492 kts | 158° |
| 2026-05-08 13:39 | 39.88291 | 29.39269 | 32382 ft | 491 kts | 160° |
| 2026-05-08 13:39 | 39.85164 | 29.41056 | 32792 ft | 490 kts | 162° |
| 2026-05-08 13:39 | 39.82023 | 29.42755 | 33196 ft | 489 kts | 163° |
| 2026-05-08 13:40 | 39.78876 | 29.44415 | 33616 ft | 488 kts | 163° |
| 2026-05-08 13:40 | 39.75732 | 29.46071 | 34012 ft | 487 kts | 164° |
| 2026-05-08 13:40 | 39.72596 | 29.47734 | 34411 ft | 486 kts | 165° |
| 2026-05-08 13:40 | 39.69391 | 29.48985 | 34758 ft | 476 kts | 176° |
| 2026-05-08 13:41 | 39.66147 | 29.49456 | 35063 ft | 464 kts | 188° |
| 2026-05-08 13:41 | 39.62978 | 29.49138 | 35397 ft | 451 kts | 199° |
| 2026-05-08 13:41 | 39.59991 | 29.48110 | 35708 ft | 439 kts | 210° |
| 2026-05-08 13:41 | 39.57260 | 29.46480 | 36022 ft | 427 kts | 219° |
| 2026-05-08 13:42 | 39.54775 | 29.44421 | 36144 ft | 423 kts | 223° |
| 2026-05-08 13:42 | 39.52321 | 29.42320 | 36165 ft | 422 kts | 222° |
| 2026-05-08 13:42 | 39.47421 | 29.38145 | 36169 ft | 422 kts | 222° |
| 2026-05-08 13:43 | 39.42517 | 29.33974 | 36170 ft | 421 kts | 222° |
| 2026-05-08 13:43 | 39.37622 | 29.29804 | 36182 ft | 421 kts | 222° |
| 2026-05-08 13:44 | 39.32723 | 29.25648 | 36185 ft | 421 kts | 222° |
| 2026-05-08 13:44 | 39.27820 | 29.21507 | 36186 ft | 421 kts | 222° |
| 2026-05-08 13:45 | 39.22930 | 29.17374 | 36189 ft | 420 kts | 222° |
| 2026-05-08 13:45 | 39.18046 | 29.13243 | 36191 ft | 420 kts | 222° |
| 2026-05-08 13:46 | 39.13178 | 29.09142 | 36198 ft | 421 kts | 222° |
| 2026-05-08 13:46 | 39.08247 | 29.04996 | 36200 ft | 420 kts | 222° |
| 2026-05-08 13:47 | 39.03375 | 29.00897 | 36205 ft | 421 kts | 222° |
| 2026-05-08 13:47 | 38.98475 | 28.96785 | 36209 ft | 420 kts | 222° |
| 2026-05-08 13:48 | 38.93574 | 28.92677 | 36210 ft | 421 kts | 222° |
| 2026-05-08 13:48 | 38.88674 | 28.88576 | 36214 ft | 421 kts | 222° |
| 2026-05-08 13:49 | 38.83778 | 28.84484 | 36208 ft | 419 kts | 222° |
| 2026-05-08 13:49 | 38.78888 | 28.80408 | 36210 ft | 420 kts | 222° |
| 2026-05-08 13:50 | 38.73987 | 28.76342 | 36214 ft | 419 kts | 222° |
| 2026-05-08 13:50 | 38.69099 | 28.72284 | 36212 ft | 419 kts | 222° |
| 2026-05-08 13:51 | 38.64208 | 28.68224 | 36209 ft | 419 kts | 222° |
| 2026-05-08 13:51 | 38.59039 | 28.64628 | 36204 ft | 436 kts | 207° |
| 2026-05-08 13:52 | 38.56037 | 28.63763 | 36202 ft | 451 kts | 194° |
| 2026-05-08 13:52 | 38.52859 | 28.63711 | 36200 ft | 463 kts | 184° |
| 2026-05-08 13:52 | 38.46419 | 28.64254 | 36189 ft | 463 kts | 185° |
| 2026-05-08 13:53 | 38.39980 | 28.64782 | 36195 ft | 464 kts | 185° |
| 2026-05-08 13:53 | 38.33520 | 28.65306 | 36090 ft | 465 kts | 185° |
| 2026-05-08 13:54 | 38.30266 | 28.65570 | 35181 ft | 473 kts | 185° |
| 2026-05-08 13:54 | 38.26966 | 28.65842 | 34473 ft | 475 kts | 185° |
| 2026-05-08 13:54 | 38.23677 | 28.66122 | 33950 ft | 473 kts | 185° |
| 2026-05-08 13:54 | 38.20409 | 28.66401 | 33454 ft | 469 kts | 185° |
| 2026-05-08 13:55 | 38.17202 | 28.66672 | 32948 ft | 466 kts | 185° |
| 2026-05-08 13:55 | 38.13937 | 28.66942 | 32435 ft | 463 kts | 185° |
| 2026-05-08 13:55 | 38.07591 | 28.67459 | 31443 ft | 457 kts | 184° |
| 2026-05-08 13:56 | 38.04427 | 28.67715 | 30922 ft | 454 kts | 184° |
| 2026-05-08 13:56 | 38.01244 | 28.67971 | 30392 ft | 451 kts | 183° |
| 2026-05-08 13:56 | 37.98126 | 28.68222 | 29758 ft | 448 kts | 183° |
| 2026-05-08 13:56 | 37.95021 | 28.68473 | 29222 ft | 445 kts | 182° |
| 2026-05-08 13:57 | 37.91981 | 28.68723 | 28735 ft | 442 kts | 182° |
| 2026-05-08 13:57 | 37.88879 | 28.68977 | 28244 ft | 439 kts | 182° |
| 2026-05-08 13:57 | 37.85879 | 28.69224 | 27775 ft | 436 kts | 182° |
| 2026-05-08 13:57 | 37.82857 | 28.69469 | 27299 ft | 433 kts | 182° |
| 2026-05-08 13:58 | 37.79860 | 28.69711 | 26825 ft | 431 kts | 182° |
| 2026-05-08 13:58 | 37.76879 | 28.69952 | 26361 ft | 427 kts | 182° |
| 2026-05-08 13:58 | 37.73912 | 28.70192 | 25893 ft | 425 kts | 181° |
| 2026-05-08 13:58 | 37.70974 | 28.70428 | 25443 ft | 422 kts | 182° |
| 2026-05-08 13:59 | 37.68053 | 28.70645 | 25012 ft | 419 kts | 181° |
| 2026-05-08 13:59 | 37.65158 | 28.70850 | 24506 ft | 413 kts | 182° |
| 2026-05-08 13:59 | 37.62307 | 28.71047 | 23689 ft | 408 kts | 181° |
| 2026-05-08 13:59 | 37.59481 | 28.71238 | 22886 ft | 403 kts | 181° |
| 2026-05-08 14:00 | 37.56703 | 28.71428 | 22141 ft | 397 kts | 181° |
| 2026-05-08 14:00 | 37.53966 | 28.71618 | 21389 ft | 390 kts | 181° |
| 2026-05-08 14:00 | 37.51283 | 28.71809 | 20620 ft | 383 kts | 180° |
| 2026-05-08 14:00 | 37.48640 | 28.72008 | 19856 ft | 377 kts | 180° |
| 2026-05-08 14:01 | 37.46049 | 28.72240 | 19102 ft | 371 kts | 179° |
| 2026-05-08 14:01 | 37.43500 | 28.72493 | 18364 ft | 364 kts | 179° |
| 2026-05-08 14:01 | 37.40995 | 28.72749 | 17648 ft | 357 kts | 178° |
| 2026-05-08 14:01 | 37.38599 | 28.72785 | 17471 ft | 329 kts | 192° |
| 2026-05-08 14:02 | 37.36523 | 28.71924 | 17267 ft | 305 kts | 213° |
| 2026-05-08 14:02 | 37.34908 | 28.70309 | 16806 ft | 292 kts | 232° |
| 2026-05-08 14:02 | 37.33859 | 28.68164 | 16238 ft | 286 kts | 248° |
| 2026-05-08 14:02 | 37.33059 | 28.65884 | 15623 ft | 285 kts | 248° |
| 2026-05-08 14:03 | 37.32248 | 28.63614 | 15057 ft | 284 kts | 247° |
| 2026-05-08 14:03 | 37.31436 | 28.61359 | 14491 ft | 283 kts | 247° |
| 2026-05-08 14:03 | 37.30626 | 28.59119 | 13928 ft | 281 kts | 247° |
| 2026-05-08 14:03 | 37.29824 | 28.56893 | 13374 ft | 279 kts | 247° |
| 2026-05-08 14:04 | 37.29024 | 28.54675 | 12817 ft | 278 kts | 247° |
| 2026-05-08 14:04 | 37.28226 | 28.52472 | 12259 ft | 276 kts | 247° |
| 2026-05-08 14:04 | 37.27433 | 28.50280 | 11705 ft | 275 kts | 246° |
| 2026-05-08 14:04 | 37.26643 | 28.48112 | 11289 ft | 271 kts | 246° |
| 2026-05-08 14:05 | 37.25864 | 28.45972 | 10992 ft | 268 kts | 246° |
| 2026-05-08 14:05 | 37.25092 | 28.43841 | 10598 ft | 269 kts | 246° |
| 2026-05-08 14:05 | 37.24316 | 28.41710 | 10298 ft | 268 kts | 246° |
| 2026-05-08 14:05 | 37.23542 | 28.39589 | 10019 ft | 266 kts | 246° |
| 2026-05-08 14:06 | 37.22775 | 28.37491 | 9753 ft | 264 kts | 246° |
| 2026-05-08 14:06 | 37.22010 | 28.35393 | 9479 ft | 264 kts | 246° |
| 2026-05-08 14:06 | 37.21262 | 28.33327 | 9180 ft | 259 kts | 246° |
| 2026-05-08 14:06 | 37.20514 | 28.31260 | 8936 ft | 258 kts | 246° |
| 2026-05-08 14:07 | 37.19770 | 28.29209 | 8674 ft | 260 kts | 246° |
| 2026-05-08 14:07 | 37.19029 | 28.27171 | 8392 ft | 257 kts | 246° |
| 2026-05-08 14:07 | 37.18286 | 28.25139 | 8122 ft | 254 kts | 246° |
| 2026-05-08 14:07 | 37.17544 | 28.23113 | 7888 ft | 255 kts | 245° |
| 2026-05-08 14:08 | 37.16808 | 28.21108 | 7609 ft | 255 kts | 245° |
| 2026-05-08 14:08 | 37.16074 | 28.19103 | 7339 ft | 248 kts | 246° |
| 2026-05-08 14:08 | 37.15383 | 28.17212 | 7261 ft | 228 kts | 246° |
| 2026-05-08 14:08 | 37.14744 | 28.15471 | 7205 ft | 214 kts | 245° |
| 2026-05-08 14:09 | 37.14241 | 28.13740 | 7129 ft | 211 kts | 261° |
| 2026-05-08 14:09 | 37.14212 | 28.11915 | 6991 ft | 210 kts | 280° |
| 2026-05-08 14:09 | 37.14601 | 28.10168 | 6813 ft | 203 kts | 287° |
| 2026-05-08 14:09 | 37.14997 | 28.08573 | 6634 ft | 182 kts | 287° |
| 2026-05-08 14:10 | 37.15351 | 28.07102 | 6472 ft | 171 kts | 286° |
| 2026-05-08 14:10 | 37.15680 | 28.05709 | 6334 ft | 163 kts | 286° |
| 2026-05-08 14:10 | 37.16001 | 28.04369 | 6187 ft | 159 kts | 286° |
| 2026-05-08 14:10 | 37.16319 | 28.03054 | 6057 ft | 156 kts | 286° |
| 2026-05-08 14:11 | 37.16627 | 28.01783 | 5928 ft | 151 kts | 286° |
| 2026-05-08 14:11 | 37.16929 | 28.00529 | 5788 ft | 150 kts | 286° |
| 2026-05-08 14:11 | 37.17233 | 27.99276 | 5655 ft | 150 kts | 285° |
| 2026-05-08 14:11 | 37.17540 | 27.98016 | 5524 ft | 152 kts | 285° |
| 2026-05-08 14:12 | 37.17846 | 27.96748 | 5387 ft | 152 kts | 286° |
| 2026-05-08 14:12 | 37.18153 | 27.95477 | 5261 ft | 153 kts | 286° |
| 2026-05-08 14:12 | 37.18461 | 27.94203 | 5131 ft | 152 kts | 285° |
| 2026-05-08 14:12 | 37.18767 | 27.92934 | 5044 ft | 152 kts | 287° |
| 2026-05-08 14:13 | 37.19074 | 27.91662 | 4883 ft | 152 kts | 286° |
| 2026-05-08 14:13 | 37.19381 | 27.90394 | 4659 ft | 152 kts | 287° |
| 2026-05-08 14:13 | 37.19683 | 27.89143 | 4406 ft | 147 kts | 287° |
| 2026-05-08 14:13 | 37.19978 | 27.87921 | 4161 ft | 147 kts | 287° |
| 2026-05-08 14:14 | 37.20272 | 27.86699 | 3922 ft | 145 kts | 286° |
| 2026-05-08 14:14 | 37.20562 | 27.85495 | 3673 ft | 144 kts | 286° |
| 2026-05-08 14:14 | 37.20851 | 27.84293 | 3424 ft | 144 kts | 287° |
| 2026-05-08 14:14 | 37.21140 | 27.83093 | 3173 ft | 143 kts | 286° |
| 2026-05-08 14:15 | 37.21427 | 27.81900 | 2928 ft | 143 kts | 286° |
| 2026-05-08 14:15 | 37.21714 | 27.80712 | 2688 ft | 142 kts | 286° |
| 2026-05-08 14:15 | 37.21997 | 27.79532 | 2443 ft | 140 kts | 285° |
| 2026-05-08 14:15 | 37.22277 | 27.78363 | 2202 ft | 139 kts | 285° |
| 2026-05-08 14:16 | 37.22557 | 27.77199 | 1959 ft | 138 kts | 285° |
| 2026-05-08 14:16 | 37.22740 | 27.76436 | 1801 ft | 138 kts | 285° |
| 2026-05-08 14:16 | 37.23014 | 27.75294 | 1566 ft | 137 kts | 285° |
| 2026-05-08 14:16 | 37.23287 | 27.74154 | 1330 ft | 136 kts | 285° |
| 2026-05-08 14:17 | 37.23559 | 27.73021 | 1094 ft | 135 kts | 285° |
| 2026-05-08 14:17 | 37.23829 | 27.71892 | 848 ft | 135 kts | 285° |
| 2026-05-08 14:17 | 37.24102 | 27.70767 | 635 ft | 135 kts | 285° |
| 2026-05-08 14:17 | 37.24445 | 27.69270 | 363 ft | 135 kts | 283° |
| 2026-05-08 14:18 | 37.24710 | 27.68142 | 136 ft | 135 kts | 286° |
| 2026-05-08 14:18 | 37.24903 | 27.67391 | 49 ft | 128 kts | 286° |
| 2026-05-08 14:18 | 37.25126 | 27.66445 | 31 ft | 92 kts | 287° |
| 2026-05-08 14:18 | 37.25250 | 27.65931 | 29 ft | 35 kts | 284° |
| 2026-05-08 14:19 | 37.25238 | 27.65694 | 29 ft | 22 kts | 256° |
| 2026-05-08 14:19 | 37.25213 | 27.65600 | 30 ft | 11 kts | 229° |
| 2026-05-08 14:19 | 37.25184 | 27.65583 | 30 ft | 1 kts | 199° |
| 2026-05-08 14:19 | 37.25174 | 27.65586 | 31 ft | 2 kts | 156° |
| 2026-05-08 14:20 | 37.25164 | 27.65605 | 31 ft | 4 kts | 123° |
| 2026-05-08 14:20 | 37.25152 | 27.65647 | 30 ft | 7 kts | 108° |
| 2026-05-08 14:20 | 37.25132 | 27.65717 | 30 ft | 10 kts | 109° |
| 2026-05-08 14:20 | 37.25110 | 27.65811 | 30 ft | 12 kts | 105° |
| 2026-05-08 14:21 | 37.25082 | 27.65920 | 31 ft | 14 kts | 109° |
| 2026-05-08 14:21 | 37.24997 | 27.65947 | 31 ft | 16 kts | 197° |
| 2026-05-08 14:21 | 37.24916 | 27.65995 | 31 ft | 17 kts | 104° |
| 2026-05-08 14:21 | 37.24880 | 27.66145 | 31 ft | 20 kts | 106° |
| 2026-05-08 14:22 | 37.24838 | 27.66321 | 30 ft | 22 kts | 107° |
| 2026-05-08 14:22 | 37.24803 | 27.66463 | 30 ft | 14 kts | 108° |
| 2026-05-08 14:22 | 37.24761 | 27.66491 | 30 ft | 6 kts | 203° |
| 2026-05-08 14:22 | 37.24716 | 27.66477 | 30 ft | 5 kts | 197° |
| 2026-05-08 14:23 | 37.24689 | 27.66466 | 30 ft | 0 kts | 195° |
| 2026-05-08 14:23 | 37.24681 | 27.66463 | 30 ft | 3 kts | 197° |
| 2026-05-08 14:23 | 37.24680 | 27.66463 | 30 ft | 0 kts | 197° |